Time;durP1;ratioP1;P1;durP2;ratioP2;P2;SDS_P1;SDS_P2;PMS_P1;PMS_P2;Temp;Humidity;BMP_temperature;BMP_pressure;BME280_temperature;BME280_humidity;BME280_pressure;Samples;Min_cycle;Max_cycle;Signal;HPM_P1;HPM_P2
2023/09/07 00:01:07;;;;;;;2.78;2.45;;;20.60;99.90;;;;;;5049899;28;20658;-65
2023/09/07 00:03:34;;;;;;;3.45;2.50;;;20.70;99.90;;;;;;5043360;28;20281;-65
2023/09/07 00:06:02;;;;;;;5.30;2.30;;;20.70;99.90;;;;;;5049521;28;20239;-65
2023/09/07 00:08:30;;;;;;;2.40;2.17;;;20.70;99.90;;;;;;5052229;28;20198;-65
2023/09/07 00:11:03;;;;;;;4.45;2.45;;;20.70;99.90;;;;;;5001638;28;20219;-65
2023/09/07 00:13:30;;;;;;;2.67;2.42;;;20.70;99.90;;;;;;5048686;28;20744;-65
2023/09/07 00:16:00;;;;;;;3.28;2.72;;;20.70;99.90;;;;;;5039531;28;20234;-65
2023/09/07 00:18:27;;;;;;;4.05;2.83;;;20.70;99.90;;;;;;5038289;28;20473;-65
2023/09/07 00:20:54;;;;;;;3.25;2.40;;;20.70;99.90;;;;;;5050294;28;20193;-65
2023/09/07 00:23:21;;;;;;;3.85;2.58;;;20.70;99.90;;;;;;5054715;28;20207;-65
2023/09/07 00:25:49;;;;;;;2.70;2.45;;;20.70;99.90;;;;;;5000808;28;20387;-65
2023/09/07 00:28:16;;;;;;;4.78;2.50;;;20.70;99.90;;;;;;5049756;28;20701;-65
2023/09/07 00:30:43;;;;;;;3.05;2.38;;;20.70;99.90;;;;;;5040532;28;20396;-64
2023/09/07 00:33:09;;;;;;;3.03;2.30;;;20.70;99.90;;;;;;5055488;28;20232;-65
2023/09/07 00:35:37;;;;;;;2.50;2.28;;;20.70;99.90;;;;;;5037112;28;20207;-64
2023/09/07 00:38:04;;;;;;;5.88;2.58;;;20.60;99.90;;;;;;5052680;28;20205;-65
2023/09/07 00:40:31;;;;;;;4.03;3.45;;;20.50;99.90;;;;;;5021405;28;20199;-65
2023/09/07 00:43:00;;;;;;;2.90;2.60;;;20.60;99.90;;;;;;5034319;28;20210;-65
2023/09/07 00:45:26;;;;;;;3.10;2.65;;;20.50;99.90;;;;;;5048400;28;20725;-65
2023/09/07 00:47:53;;;;;;;2.92;2.70;;;20.50;99.90;;;;;;5052473;28;20852;-65
2023/09/07 00:50:20;;;;;;;2.80;2.60;;;20.60;99.90;;;;;;5041109;28;20208;-65
2023/09/07 00:52:48;;;;;;;4.43;2.88;;;20.50;99.90;;;;;;5054512;28;20391;-65
2023/09/07 00:55:16;;;;;;;3.67;2.88;;;20.40;99.90;;;;;;5054664;28;20196;-65
2023/09/07 00:57:43;;;;;;;3.47;2.42;;;20.40;99.90;;;;;;5008822;28;20414;-65
2023/09/07 01:00:12;;;;;;;3.80;2.47;;;20.40;99.90;;;;;;5052931;28;20200;-65
2023/09/07 01:02:39;;;;;;;6.80;2.53;;;20.40;99.90;;;;;;5044278;28;20196;-65
2023/09/07 01:05:07;;;;;;;3.45;2.70;;;20.40;99.90;;;;;;5053932;28;20789;-65
2023/09/07 01:07:38;;;;;;;2.45;2.22;;;20.30;99.90;;;;;;5038319;28;20224;-64
2023/09/07 01:10:07;;;;;;;3.70;2.53;;;20.30;99.90;;;;;;5053053;28;20535;-66
2023/09/07 01:12:34;;;;;;;3.17;2.80;;;20.30;99.90;;;;;;5020813;28;20203;-65
2023/09/07 01:15:01;;;;;;;4.80;2.30;;;20.30;99.90;;;;;;5046876;28;20231;-65
2023/09/07 01:17:29;;;;;;;2.80;2.50;;;20.30;99.90;;;;;;5053417;28;20215;-64
2023/09/07 01:20:05;;;;;;;2.90;2.65;;;20.20;99.90;;;;;;5055446;28;20196;-65
2023/09/07 01:22:34;;;;;;;2.90;2.60;;;20.30;99.90;;;;;;5043349;28;20204;-67
2023/09/07 01:25:03;;;;;;;3.58;3.17;;;20.20;99.90;;;;;;5052599;28;20192;-65
2023/09/07 01:27:29;;;;;;;2.78;2.58;;;19.90;99.90;;;;;;5024517;28;20350;-65
2023/09/07 01:29:56;;;;;;;3.00;2.45;;;20.10;99.90;;;;;;5036976;28;21021;-65
2023/09/07 01:32:23;;;;;;;3.30;2.60;;;20.00;99.90;;;;;;5048499;28;20200;-64
2023/09/07 01:34:50;;;;;;;4.32;3.13;;;20.00;99.90;;;;;;5044778;28;20589;-64
2023/09/07 01:37:17;;;;;;;5.80;2.95;;;19.90;99.90;;;;;;5049430;28;20199;-65
2023/09/07 01:39:45;;;;;;;3.45;3.00;;;19.80;99.90;;;;;;5031935;28;20847;-64
2023/09/07 01:42:11;;;;;;;3.05;2.72;;;19.90;99.90;;;;;;5052206;28;20192;-64
2023/09/07 01:44:39;;;;;;;10.68;3.10;;;18.90;99.90;;;;;;5008248;28;20208;-65
2023/09/07 01:47:06;;;;;;;2.95;2.65;;;19.90;99.90;;;;;;5054518;28;20663;-65
2023/09/07 01:49:32;;;;;;;2.75;2.30;;;19.90;99.90;;;;;;5041723;28;20200;-65
2023/09/07 01:51:59;;;;;;;4.30;2.85;;;19.90;99.90;;;;;;5050268;28;20223;-65
2023/09/07 01:54:26;;;;;;;3.28;2.97;;;19.90;99.90;;;;;;5038428;28;20209;-65
2023/09/07 01:56:54;;;;;;;4.00;2.92;;;19.90;99.90;;;;;;5051000;28;20215;-65
2023/09/07 01:59:21;;;;;;;3.95;2.67;;;19.90;99.90;;;;;;5012261;28;20228;-65
2023/09/07 02:01:48;;;;;;;3.05;2.78;;;19.80;99.90;;;;;;5044489;28;20196;-64
2023/09/07 02:04:14;;;;;;;6.20;3.00;;;19.90;99.90;;;;;;5050446;28;20681;-64
2023/09/07 02:06:41;;;;;;;4.13;2.70;;;19.80;99.90;;;;;;5049093;28;20224;-65
2023/09/07 02:09:09;;;;;;;3.10;2.80;;;19.80;99.90;;;;;;5039200;28;20204;-65
2023/09/07 02:11:35;;;;;;;3.10;2.63;;;19.80;99.90;;;;;;5052241;28;20281;-64
2023/09/07 02:14:03;;;;;;;5.25;3.00;;;19.80;99.90;;;;;;5048769;28;20189;-64
2023/09/07 02:16:30;;;;;;;4.30;2.88;;;19.70;99.90;;;;;;5012019;28;20230;-65
2023/09/07 02:19:04;;;;;;;4.43;2.72;;;19.60;99.90;;;;;;5052001;28;20203;-64
2023/09/07 02:21:31;;;;;;;4.88;3.22;;;19.50;99.90;;;;;;5043466;28;25022;-65
2023/09/07 02:23:58;;;;;;;5.18;3.67;;;19.50;99.90;;;;;;5039637;28;20734;-64
2023/09/07 02:26:24;;;;;;;5.53;3.25;;;19.50;99.90;;;;;;5044198;28;20236;-65
2023/09/07 02:28:51;;;;;;;4.25;3.00;;;20.00;99.90;;;;;;5046611;28;20208;-65
2023/09/07 02:31:19;;;;;;;3.58;3.25;;;19.50;99.90;;;;;;5011556;28;20809;-65
2023/09/07 02:33:46;;;;;;;3.22;2.92;;;19.50;99.90;;;;;;5043968;28;20192;-65
2023/09/07 02:36:13;;;;;;;3.97;3.30;;;19.40;99.90;;;;;;5052138;28;20196;-65
2023/09/07 02:38:40;;;;;;;3.42;3.13;;;19.40;99.90;;;;;;5052173;28;20197;-65
2023/09/07 02:41:07;;;;;;;4.75;3.35;;;19.40;99.90;;;;;;5032970;28;20197;-65
2023/09/07 02:43:34;;;;;;;3.60;3.28;;;19.30;99.90;;;;;;5046445;28;20693;-65
2023/09/07 02:46:00;;;;;;;3.65;3.25;;;19.30;99.90;;;;;;5010023;28;20540;-65
2023/09/07 02:48:28;;;;;;;3.80;2.88;;;19.30;99.90;;;;;;5049863;28;20196;-65
2023/09/07 02:50:58;;;;;;;4.22;3.05;;;19.30;99.90;;;;;;5041886;28;20196;-65
2023/09/07 02:53:25;;;;;;;3.47;3.17;;;19.30;99.90;;;;;;5052243;28;20253;-65
2023/09/07 02:55:51;;;;;;;4.10;3.70;;;19.30;99.90;;;;;;5034510;28;20204;-65
2023/09/07 02:58:18;;;;;;;3.95;3.55;;;19.20;99.90;;;;;;5052841;28;20212;-65
2023/09/07 03:00:46;;;;;;;3.83;3.40;;;19.10;99.90;;;;;;5046342;28;20196;-65
2023/09/07 03:03:14;;;;;;;5.07;3.55;;;19.10;99.90;;;;;;5016631;28;20212;-65
2023/09/07 03:05:43;;;;;;;6.78;3.65;;;19.10;99.90;;;;;;5051610;28;20242;-65
2023/09/07 03:08:10;;;;;;;12.52;3.22;;;19.10;99.90;;;;;;5052640;28;20232;-65
2023/09/07 03:10:37;;;;;;;4.45;3.40;;;19.10;99.90;;;;;;5049647;28;20301;-65
2023/09/07 03:13:05;;;;;;;3.90;3.53;;;19.10;99.90;;;;;;5038027;28;20204;-65
2023/09/07 03:15:32;;;;;;;4.07;3.67;;;19.00;99.90;;;;;;5053916;28;20239;-65
2023/09/07 03:17:59;;;;;;;3.95;3.25;;;19.00;99.90;;;;;;5020652;28;20692;-65
2023/09/07 03:20:26;;;;;;;6.05;3.20;;;19.00;99.90;;;;;;5060805;28;20677;-65
2023/09/07 03:22:54;;;;;;;4.78;3.35;;;18.90;99.90;;;;;;5059254;28;20279;-65
2023/09/07 03:25:21;;;;;;;3.75;3.00;;;18.90;99.90;;;;;;5060560;28;20632;-65
2023/09/07 03:27:48;;;;;;;4.60;3.70;;;19.00;99.90;;;;;;5045711;28;20305;-65
2023/09/07 03:30:15;;;;;;;5.72;3.90;;;18.50;99.90;;;;;;5052749;28;20210;-65
2023/09/07 03:32:42;;;;;;;6.68;3.70;;;18.80;99.90;;;;;;5052176;28;20553;-65
2023/09/07 03:35:10;;;;;;;4.00;3.63;;;18.80;99.90;;;;;;5029923;28;20197;-65
2023/09/07 03:37:38;;;;;;;8.20;3.55;;;18.90;99.90;;;;;;5059355;28;20197;-65
2023/09/07 03:40:08;;;;;;;4.60;3.75;;;18.60;99.90;;;;;;5057957;28;20204;-65
2023/09/07 03:42:36;;;;;;;5.38;3.45;;;18.70;99.90;;;;;;5058108;28;20273;-65
2023/09/07 03:45:03;;;;;;;6.97;3.72;;;18.60;99.90;;;;;;5036740;28;20208;-65
2023/09/07 03:47:30;;;;;;;4.22;3.67;;;18.60;99.90;;;;;;5053300;28;20282;-65
2023/09/07 03:49:57;;;;;;;4.63;4.10;;;18.60;99.90;;;;;;5020512;28;20211;-65
2023/09/07 03:52:26;;;;;;;4.28;3.88;;;18.60;99.90;;;;;;5053274;28;20221;-65
2023/09/07 03:54:54;;;;;;;3.72;3.42;;;18.10;99.90;;;;;;5052163;28;20551;-65
2023/09/07 03:57:23;;;;;;;5.20;3.80;;;18.50;99.90;;;;;;5057770;28;20200;-65
2023/09/07 03:59:50;;;;;;;6.15;3.80;;;18.30;99.90;;;;;;5041601;28;20205;-65
2023/09/07 04:02:17;;;;;;;4.20;3.78;;;18.40;99.90;;;;;;5050396;28;20200;-65
2023/09/07 04:04:44;;;;;;;5.80;3.60;;;18.40;99.90;;;;;;5015793;28;20797;-65
2023/09/07 04:07:11;;;;;;;5.00;4.05;;;18.30;99.90;;;;;;5048309;28;21368;-64
2023/09/07 04:09:38;;;;;;;4.68;4.07;;;18.30;99.90;;;;;;5064156;28;20208;-65
2023/09/07 04:12:06;;;;;;;6.97;4.13;;;18.20;99.90;;;;;;5058038;28;20207;-65
2023/09/07 04:14:35;;;;;;;4.72;4.20;;;18.20;99.90;;;;;;5051061;28;20231;-65
2023/09/07 04:17:01;;;;;;;11.05;3.90;;;18.20;99.90;;;;;;5056055;28;21075;-65
2023/09/07 04:19:28;;;;;;;4.32;3.85;;;18.20;99.90;;;;;;5059506;28;20200;-65
2023/09/07 04:21:55;;;;;;;4.43;3.83;;;18.20;99.90;;;;;;5004642;28;20209;-65
2023/09/07 04:24:22;;;;;;;4.90;3.70;;;18.30;99.90;;;;;;5051128;28;20189;-65
2023/09/07 04:26:49;;;;;;;5.40;3.85;;;18.20;99.90;;;;;;5048606;28;20228;-64
2023/09/07 04:29:16;;;;;;;4.13;3.70;;;18.30;99.90;;;;;;5048432;28;20201;-64
2023/09/07 04:31:44;;;;;;;5.75;4.15;;;18.30;99.90;;;;;;5040214;28;20193;-65
2023/09/07 04:34:11;;;;;;;4.80;3.80;;;17.80;99.90;;;;;;5056767;28;20200;-64
2023/09/07 04:36:38;;;;;;;5.07;4.20;;;18.20;99.90;;;;;;5012408;28;20200;-65
2023/09/07 04:39:05;;;;;;;5.30;4.03;;;18.30;99.90;;;;;;5055660;28;20637;-65
2023/09/07 04:41:32;;;;;;;7.18;3.42;;;18.30;99.90;;;;;;5051645;28;20243;-64
2023/09/07 04:43:59;;;;;;;5.35;3.97;;;18.30;99.90;;;;;;5052660;28;20197;-64
2023/09/07 04:46:25;;;;;;;4.60;4.10;;;18.30;99.90;;;;;;5045420;28;20227;-65
2023/09/07 04:48:54;;;;;;;4.53;3.95;;;18.20;99.90;;;;;;5057422;28;20201;-64
2023/09/07 04:51:22;;;;;;;6.05;4.03;;;18.20;99.90;;;;;;5022318;28;20216;-65
2023/09/07 04:53:48;;;;;;;6.07;3.83;;;18.30;99.90;;;;;;5043805;28;20238;-65
2023/09/07 04:56:16;;;;;;;4.40;3.72;;;18.30;99.90;;;;;;5048999;28;20308;-65
2023/09/07 04:58:42;;;;;;;5.38;4.20;;;18.30;99.90;;;;;;5034199;28;20314;-64
2023/09/07 05:01:10;;;;;;;4.75;4.10;;;18.20;99.90;;;;;;5055813;28;20208;-64
2023/09/07 05:03:39;;;;;;;4.70;4.13;;;18.20;99.90;;;;;;5032396;28;20224;-65
2023/09/07 05:06:08;;;;;;;7.53;4.05;;;18.30;99.90;;;;;;5015148;28;20883;-64
2023/09/07 05:08:34;;;;;;;4.35;3.92;;;18.30;99.90;;;;;;5038719;28;20239;-64
2023/09/07 05:11:03;;;;;;;5.90;4.20;;;18.20;99.90;;;;;;5051000;28;20216;-64
2023/09/07 05:13:30;;;;;;;5.75;4.28;;;18.20;99.90;;;;;;5053928;28;21718;-64
2023/09/07 05:15:59;;;;;;;5.22;4.30;;;18.20;99.90;;;;;;5041100;28;20636;-64
2023/09/07 05:18:26;;;;;;;5.15;4.30;;;18.20;99.90;;;;;;5034547;28;20852;-64
2023/09/07 05:20:53;;;;;;;6.28;4.43;;;18.20;99.90;;;;;;5016567;28;20227;-64
2023/09/07 05:23:22;;;;;;;5.88;4.18;;;18.10;99.90;;;;;;5035842;28;20224;-64
2023/09/07 05:25:52;;;;;;;5.63;4.38;;;18.50;99.90;;;;;;5044637;28;20536;-65
2023/09/07 05:28:19;;;;;;;4.10;3.70;;;18.20;99.90;;;;;;5055184;28;20228;-65
2023/09/07 05:30:46;;;;;;;5.97;4.30;;;;;;;;;;5058002;28;20255;-66
2023/09/07 05:33:16;;;;;;;5.07;3.83;;;18.20;99.90;;;;;;5045871;28;20204;-65
2023/09/07 05:35:43;;;;;;;6.93;4.40;;;18.20;99.90;;;;;;5049429;28;20627;-65
2023/09/07 05:38:10;;;;;;;7.15;4.15;;;18.20;99.90;;;;;;5010619;28;20808;-65
2023/09/07 05:40:39;;;;;;;5.63;4.85;;;18.40;99.90;;;;;;5055285;28;20228;-65
2023/09/07 05:43:07;;;;;;;6.22;4.60;;;18.90;99.90;;;;;;5056080;28;20223;-65
2023/09/07 05:45:36;;;;;;;5.47;4.78;;;18.40;99.90;;;;;;5055849;28;20290;-65
2023/09/07 05:48:03;;;;;;;6.30;4.57;;;18.40;99.90;;;;;;5048059;28;20572;-65
2023/09/07 05:50:30;;;;;;;5.03;4.05;;;18.30;99.90;;;;;;5046574;28;20228;-65
2023/09/07 05:52:57;;;;;;;5.28;4.57;;;18.30;99.90;;;;;;5018538;28;20203;-65
2023/09/07 05:55:24;;;;;;;5.75;4.75;;;18.30;99.90;;;;;;5055253;28;20349;-65
2023/09/07 05:57:55;;;;;;;5.07;4.20;;;18.30;99.90;;;;;;5061388;28;20206;-65
2023/09/07 06:00:23;;;;;;;5.78;4.20;;;18.40;99.90;;;;;;5062252;28;20576;-66
2023/09/07 06:02:50;;;;;;;6.95;4.38;;;18.70;99.90;;;;;;5054355;28;20597;-65
2023/09/07 06:05:17;;;;;;;7.00;4.43;;;18.40;99.90;;;;;;5042673;28;20235;-65
2023/09/07 06:07:44;;;;;;;5.75;4.30;;;18.60;99.90;;;;;;5022157;28;20698;-65
2023/09/07 06:10:11;;;;;;;5.80;5.20;;;18.60;99.90;;;;;;5044631;28;20227;-66
2023/09/07 06:12:38;;;;;;;6.25;4.65;;;18.60;99.90;;;;;;5045964;28;20201;-66
2023/09/07 06:15:09;;;;;;;7.32;4.43;;;18.50;99.90;;;;;;5053030;28;20223;-66
2023/09/07 06:17:35;;;;;;;7.63;4.60;;;18.60;99.90;;;;;;5045578;28;21026;-65
2023/09/07 06:20:03;;;;;;;8.35;4.80;;;18.60;99.90;;;;;;5036798;28;20193;-66
2023/09/07 06:22:30;;;;;;;6.75;4.80;;;18.60;99.90;;;;;;5056141;28;20199;-66
2023/09/07 06:24:57;;;;;;;5.18;4.68;;;18.60;99.90;;;;;;5015850;28;20204;-65
2023/09/07 06:27:24;;;;;;;6.57;4.05;;;18.70;99.90;;;;;;5051280;28;20241;-65
2023/09/07 06:29:51;;;;;;;5.07;4.43;;;18.70;99.90;;;;;;5055318;28;20258;-65
2023/09/07 06:32:19;;;;;;;7.00;4.80;;;18.70;99.90;;;;;;5063113;28;20200;-65
2023/09/07 06:34:46;;;;;;;8.05;4.82;;;18.80;99.90;;;;;;5048037;28;20975;-65
2023/09/07 06:37:13;;;;;;;6.20;4.82;;;18.80;99.90;;;;;;5044437;28;20205;-65
2023/09/07 06:39:42;;;;;;;5.40;4.85;;;18.90;99.90;;;;;;5018725;28;20793;-65
2023/09/07 06:42:10;;;;;;;7.75;4.57;;;18.90;99.90;;;;;;5058271;28;20205;-65
2023/09/07 06:44:36;;;;;;;6.68;4.13;;;19.00;99.90;;;;;;5057159;28;20809;-65
2023/09/07 06:47:04;;;;;;;6.03;4.28;;;19.00;99.90;;;;;;5058279;28;20193;-65
2023/09/07 06:49:32;;;;;;;4.78;4.25;;;19.10;99.90;;;;;;5058762;28;20205;-65
2023/09/07 06:51:59;;;;;;;6.65;4.57;;;19.10;99.90;;;;;;5057598;28;20290;-65
2023/09/07 06:54:25;;;;;;;6.55;4.80;;;19.20;99.90;;;;;;5026387;28;20196;-65
2023/09/07 06:56:52;;;;;;;5.10;4.30;;;19.20;99.90;;;;;;5064999;28;20225;-65
2023/09/07 06:59:19;;;;;;;8.10;4.82;;;19.30;99.90;;;;;;5060074;28;20208;-65
2023/09/07 07:01:46;;;;;;;5.05;4.55;;;19.30;99.90;;;;;;5061878;28;20947;-65
2023/09/07 07:04:13;;;;;;;7.60;5.38;;;19.40;99.90;;;;;;5059164;28;20196;-65
2023/09/07 07:06:41;;;;;;;8.88;4.70;;;19.50;99.90;;;;;;5033885;28;20918;-65
2023/09/07 07:09:09;;;;;;;10.80;4.00;;;19.50;99.90;;;;;;5047686;28;20701;-65
2023/09/07 07:11:35;;;;;;;6.07;4.32;;;19.60;99.90;;;;;;4996811;28;20219;-65
2023/09/07 07:14:02;;;;;;;4.85;4.18;;;19.70;99.90;;;;;;5049099;28;20189;-65
2023/09/07 07:16:29;;;;;;;5.15;4.55;;;19.70;99.90;;;;;;5055038;28;20224;-65
2023/09/07 07:18:56;;;;;;;4.60;4.20;;;19.80;99.90;;;;;;5063667;28;20201;-66
2023/09/07 07:21:23;;;;;;;8.60;4.50;;;19.80;99.90;;;;;;5061129;28;20220;-65
2023/09/07 07:23:51;;;;;;;6.03;4.35;;;20.90;99.90;;;;;;5050455;28;20203;-65
2023/09/07 07:26:18;;;;;;;11.73;4.20;;;19.90;99.90;;;;;;5021103;28;20209;-65
2023/09/07 07:28:45;;;;;;;4.82;4.32;;;20.00;99.90;;;;;;5046954;28;20231;-65
2023/09/07 07:31:12;;;;;;;6.32;4.32;;;20.00;99.90;;;;;;5062243;28;20207;-65
2023/09/07 07:33:39;;;;;;;8.57;4.10;;;20.20;99.90;;;;;;5041002;28;20224;-65
2023/09/07 07:36:06;;;;;;;7.55;4.25;;;20.20;99.90;;;;;;5057293;28;20774;-65
2023/09/07 07:38:32;;;;;;;7.60;4.70;;;20.20;99.90;;;;;;5046550;28;20204;-65
2023/09/07 07:41:01;;;;;;;6.05;4.50;;;20.30;99.90;;;;;;5059091;28;20277;-65
2023/09/07 07:43:27;;;;;;;8.30;4.45;;;20.40;99.90;;;;;;5021093;28;20705;-65
2023/09/07 07:45:55;;;;;;;6.07;4.20;;;20.50;99.90;;;;;;5057878;28;20258;-65
2023/09/07 07:48:22;;;;;;;5.78;4.30;;;20.60;99.90;;;;;;5050326;28;20602;-65
2023/09/07 07:50:49;;;;;;;5.35;4.00;;;20.60;99.90;;;;;;5057175;28;20410;-65
2023/09/07 07:53:15;;;;;;;5.70;4.43;;;20.60;99.90;;;;;;5051890;28;20778;-65
2023/09/07 07:55:42;;;;;;;4.78;3.83;;;20.70;99.90;;;;;;5056474;28;20743;-65
2023/09/07 07:58:11;;;;;;;7.22;4.18;;;20.70;99.90;;;;;;5025547;28;20208;-65
2023/09/07 08:00:40;;;;;;;6.53;4.10;;;20.80;99.90;;;;;;5058102;28;20203;-65
2023/09/07 08:03:07;;;;;;;8.57;3.95;;;20.90;99.90;;;;;;5052011;28;20209;-65
2023/09/07 08:05:35;;;;;;;17.38;4.97;;;20.90;99.90;;;;;;5061169;28;20201;-65
2023/09/07 08:08:02;;;;;;;11.90;3.42;;;21.00;99.90;;;;;;5046545;28;20227;-65
2023/09/07 08:10:29;;;;;;;8.48;3.88;;;21.00;99.90;;;;;;5062212;28;20225;-65
2023/09/07 08:12:57;;;;;;;11.50;4.10;;;21.10;99.90;;;;;;5018888;28;20693;-65
2023/09/07 08:15:25;;;;;;;4.45;3.53;;;21.20;99.90;;;;;;5058209;28;20224;-65
2023/09/07 08:17:53;;;;;;;9.00;4.10;;;21.30;99.90;;;;;;5035090;28;20411;-65
2023/09/07 08:20:19;;;;;;;5.53;3.67;;;21.30;99.90;;;;;;5055462;28;20729;-66
2023/09/07 08:22:46;;;;;;;8.45;3.42;;;21.60;99.90;;;;;;5041216;28;20209;-65
2023/09/07 08:25:14;;;;;;;5.22;4.00;;;21.40;99.90;;;;;;5046303;28;20763;-65
2023/09/07 08:27:45;;;;;;;4.60;3.90;;;21.50;99.90;;;;;;5049615;28;20200;-65
2023/09/07 08:30:15;;;;;;;4.00;3.60;;;21.60;99.90;;;;;;5024157;28;20227;-66
2023/09/07 08:32:43;;;;;;;4.35;3.95;;;21.70;99.90;;;;;;5039984;28;20211;-65
2023/09/07 08:35:12;;;;;;;4.30;3.60;;;21.70;99.90;;;;;;5055422;28;20212;-66
2023/09/07 08:37:39;;;;;;;6.90;3.85;;;21.80;99.90;;;;;;5040728;28;20224;-66
2023/09/07 08:40:08;;;;;;;4.13;3.72;;;21.80;99.90;;;;;;5049364;28;20200;-65
2023/09/07 08:42:37;;;;;;;5.38;3.63;;;22.20;99.90;;;;;;5056771;28;20618;-66
2023/09/07 08:45:06;;;;;;;3.92;3.53;;;22.20;99.90;;;;;;5020960;28;20212;-66
2023/09/07 08:47:35;;;;;;;6.88;3.80;;;22.10;99.90;;;;;;5055974;28;20555;-66
2023/09/07 08:50:06;;;;;;;4.88;3.90;;;22.10;99.90;;;;;;5055962;28;20231;-66
2023/09/07 08:52:32;;;;;;;4.50;3.55;;;22.30;99.90;;;;;;5049511;28;20215;-66
2023/09/07 08:55:00;;;;;;;5.30;3.85;;;22.30;99.90;;;;;;5048629;28;21285;-66
2023/09/07 08:57:29;;;;;;;4.20;3.50;;;22.40;99.90;;;;;;5063548;28;20192;-66
2023/09/07 08:59:55;;;;;;;3.42;3.13;;;22.40;99.90;;;;;;5028915;28;20992;-66
2023/09/07 09:02:22;;;;;;;4.82;3.95;;;22.50;99.90;;;;;;5058289;28;20196;-66
2023/09/07 09:04:49;;;;;;;4.80;3.83;;;22.50;99.90;;;;;;5047772;28;20848;-66
2023/09/07 09:07:18;;;;;;;3.90;3.50;;;22.50;99.90;;;;;;5052324;28;20625;-66
2023/09/07 09:09:45;;;;;;;5.32;4.00;;;22.60;99.90;;;;;;5031129;28;20235;-66
2023/09/07 09:12:12;;;;;;;4.97;3.60;;;22.90;99.90;;;;;;5041462;28;20726;-66
2023/09/07 09:14:42;;;;;;;4.25;3.60;;;23.00;99.90;;;;;;5046995;28;20235;-67
2023/09/07 09:17:12;;;;;;;6.00;4.10;;;23.00;99.90;;;;;;5022959;28;20211;-66
2023/09/07 09:19:39;;;;;;;6.75;3.88;;;23.10;99.90;;;;;;5051497;28;20217;-66
2023/09/07 09:22:07;;;;;;;5.53;4.15;;;23.00;99.90;;;;;;5059736;28;20193;-66
2023/09/07 09:24:36;;;;;;;4.25;3.42;;;23.00;99.90;;;;;;5058203;28;20232;-66
2023/09/07 09:27:02;;;;;;;9.10;3.60;;;23.00;99.90;;;;;;5052912;28;20200;-66
2023/09/07 09:29:29;;;;;;;5.63;4.18;;;22.90;99.90;;;;;;5050866;28;20220;-66
2023/09/07 09:31:56;;;;;;;5.68;4.10;;;22.90;99.90;;;;;;5022869;28;20204;-66
2023/09/07 09:34:23;;;;;;;6.15;4.03;;;23.10;99.90;;;;;;5055721;28;20211;-67
2023/09/07 09:36:50;;;;;;;4.55;3.92;;;23.10;99.90;;;;;;5049798;28;20197;-66
2023/09/07 09:39:24;;;;;;;4.70;3.67;;;23.10;99.90;;;;;;5059949;28;20220;-66
2023/09/07 09:41:53;;;;;;;5.80;3.67;;;23.20;99.90;;;;;;5047017;28;20606;-66
2023/09/07 09:44:25;;;;;;;5.13;4.32;;;23.30;99.90;;;;;;5061224;28;20200;-66
2023/09/07 09:46:53;;;;;;;6.50;3.63;;;23.30;99.90;;;;;;5017871;28;20203;-66
2023/09/07 09:49:21;;;;;;;4.70;4.18;;;23.40;99.90;;;;;;5056230;28;20243;-66
2023/09/07 09:51:50;;;;;;;6.68;3.88;;;23.40;99.90;;;;;;5048258;28;20205;-66
2023/09/07 09:54:18;;;;;;;7.13;3.67;;;23.50;99.90;;;;;;5056991;28;20277;-66
2023/09/07 09:56:45;;;;;;;4.75;3.95;;;23.40;99.90;;;;;;5058213;28;20203;-66
2023/09/07 09:59:14;;;;;;;4.88;4.10;;;23.60;99.90;;;;;;5055371;28;21461;-66
2023/09/07 10:01:45;;;;;;;6.30;3.70;;;23.60;99.90;;;;;;5017517;28;20238;-66
2023/09/07 10:04:14;;;;;;;8.88;4.15;;;23.60;99.90;;;;;;5062161;28;20728;-66
2023/09/07 10:06:52;;;;;;;5.00;3.90;;;23.70;99.90;;;;;;5049303;28;20208;-66
2023/09/07 10:09:19;;;;;;;5.53;3.65;;;23.70;99.90;;;;;;5055191;28;20328;-66
2023/09/07 10:11:52;;;;;;;6.65;3.88;;;24.20;99.90;;;;;;5056342;28;21200;-67
2023/09/07 10:14:21;;;;;;;4.10;3.47;;;23.80;99.90;;;;;;5059917;28;20204;-66
2023/09/07 10:16:51;;;;;;;11.30;3.90;;;23.90;99.90;;;;;;5029456;28;20192;-66
2023/09/07 10:19:19;;;;;;;5.80;4.20;;;24.00;99.90;;;;;;5053730;28;20251;-66
2023/09/07 10:21:46;;;;;;;6.32;3.75;;;23.90;99.90;;;;;;5056005;28;20574;-66
2023/09/07 10:24:23;;;;;;;5.60;3.72;;;24.00;99.90;;;;;;5061828;28;20223;-66
2023/09/07 10:26:57;;;;;;;3.88;3.58;;;23.50;99.90;;;;;;5052266;28;20196;-66
2023/09/07 10:29:26;;;;;;;5.57;3.88;;;23.90;99.90;;;;;;5060046;28;20295;-66
2023/09/07 10:31:53;;;;;;;5.65;4.38;;;24.00;99.90;;;;;;5049798;28;20692;-66
2023/09/07 10:34:20;;;;;;;11.63;3.90;;;24.00;99.90;;;;;;5024665;28;20614;-66
2023/09/07 10:36:51;;;;;;;6.63;4.40;;;24.20;99.90;;;;;;5058709;28;20199;-66
2023/09/07 10:39:18;;;;;;;6.88;3.97;;;24.20;99.90;;;;;;5057224;28;20212;-66
2023/09/07 10:41:45;;;;;;;4.28;3.75;;;24.20;99.90;;;;;;5060577;28;20561;-67
2023/09/07 10:44:13;;;;;;;4.68;4.18;;;24.20;99.90;;;;;;5047987;28;20205;-66
2023/09/07 10:46:42;;;;;;;5.30;4.10;;;24.30;99.90;;;;;;5049254;28;20583;-66
2023/09/07 10:49:11;;;;;;;4.32;3.92;;;24.40;99.90;;;;;;5024717;28;20226;-66
2023/09/07 10:51:43;;;;;;;4.70;3.78;;;24.50;99.90;;;;;;5058469;28;20211;-66
2023/09/07 10:54:17;;;;;;;4.40;4.00;;;24.40;99.90;;;;;;5051862;28;20200;-67
2023/09/07 10:56:45;;;;;;;5.68;3.72;;;24.50;99.90;;;;;;5059841;28;20199;-67
2023/09/07 10:59:12;;;;;;;7.20;4.00;;;24.50;99.90;;;;;;5049789;28;20745;-66
2023/09/07 11:01:38;;;;;;;4.13;3.72;;;24.70;99.90;;;;;;5051454;28;20208;-66
2023/09/07 11:04:08;;;;;;;4.88;3.92;;;24.70;99.90;;;;;;5003548;28;20205;-66
2023/09/07 11:06:35;;;;;;;5.65;3.67;;;24.80;99.90;;;;;;5051556;28;20305;-66
2023/09/07 11:09:04;;;;;;;7.22;3.70;;;24.80;99.90;;;;;;5047449;28;20723;-66
2023/09/07 11:11:33;;;;;;;4.20;3.08;;;24.70;99.90;;;;;;5047119;28;20232;-66
2023/09/07 11:13:59;;;;;;;8.57;3.65;;;24.70;99.90;;;;;;5045110;28;20285;-66
2023/09/07 11:16:27;;;;;;;6.32;3.88;;;24.80;99.90;;;;;;5042235;28;20235;-67
2023/09/07 11:18:54;;;;;;;7.43;3.63;;;24.80;99.90;;;;;;5007770;28;21183;-66
2023/09/07 11:21:23;;;;;;;3.65;3.05;;;24.70;99.90;;;;;;5060359;28;20223;-66
2023/09/07 11:23:51;;;;;;;5.32;3.08;;;24.40;99.90;;;;;;5036540;28;20204;-66
2023/09/07 11:26:18;;;;;;;3.75;3.45;;;24.70;99.90;;;;;;5056710;28;20754;-66
2023/09/07 11:28:47;;;;;;;4.28;3.53;;;24.70;99.90;;;;;;5053721;28;20273;-66
2023/09/07 11:31:14;;;;;;;6.03;3.50;;;24.80;99.90;;;;;;5049432;28;20225;-66
2023/09/07 11:33:42;;;;;;;6.18;3.33;;;21.30;99.90;;;;;;5003433;28;20228;-66
2023/09/07 11:36:09;;;;;;;5.25;3.35;;;24.80;99.90;;;;;;5056058;28;20595;-66
2023/09/07 11:38:44;;;;;;;3.85;3.55;;;25.00;99.90;;;;;;5059132;28;20204;-66
2023/09/07 11:41:11;;;;;;;4.35;3.47;;;25.00;99.90;;;;;;5056731;28;20194;-66
2023/09/07 11:43:39;;;;;;;6.07;3.47;;;25.10;99.90;;;;;;5058993;28;20200;-66
2023/09/07 11:46:06;;;;;;;4.60;3.70;;;25.10;99.90;;;;;;5055406;28;20291;-66
2023/09/07 11:48:34;;;;;;;3.58;3.15;;;25.20;99.90;;;;;;5055747;28;20200;-66
2023/09/07 11:51:00;;;;;;;4.80;3.58;;;25.30;99.90;;;;;;5021404;28;20346;-66
2023/09/07 11:53:27;;;;;;;3.63;3.30;;;25.30;99.90;;;;;;5059603;28;20200;-66
2023/09/07 11:55:56;;;;;;;7.95;3.30;;;25.30;99.90;;;;;;5050665;28;20196;-66
2023/09/07 11:58:24;;;;;;;4.93;2.92;;;25.30;99.90;;;;;;5060214;28;20205;-66
2023/09/07 12:00:51;;;;;;;5.15;3.17;;;25.30;99.90;;;;;;5054398;28;20203;-66
2023/09/07 12:03:18;;;;;;;3.75;3.25;;;25.30;99.90;;;;;;5054521;28;20209;-66
2023/09/07 12:05:45;;;;;;;3.35;3.05;;;25.30;99.90;;;;;;5019714;28;20203;-66
2023/09/07 12:08:13;;;;;;;4.28;3.20;;;25.30;99.90;;;;;;5063361;28;20209;-66
2023/09/07 12:10:39;;;;;;;2.95;2.65;;;25.30;99.90;;;;;;5059468;28;20228;-66
2023/09/07 12:13:07;;;;;;;3.03;2.78;;;25.30;99.90;;;;;;5048895;28;20219;-66
2023/09/07 12:15:35;;;;;;;3.20;2.83;;;25.30;99.90;;;;;;5063285;28;20238;-66
2023/09/07 12:18:02;;;;;;;5.22;2.75;;;25.30;99.90;;;;;;5051614;28;20217;-66
2023/09/07 12:20:29;;;;;;;3.67;2.85;;;25.40;99.90;;;;;;5018400;28;20212;-66
2023/09/07 12:22:55;;;;;;;5.93;3.28;;;25.40;99.90;;;;;;5058540;28;20556;-66
2023/09/07 12:25:22;;;;;;;3.83;2.90;;;25.40;99.90;;;;;;5061164;28;20197;-66
2023/09/07 12:27:50;;;;;;;7.70;2.83;;;25.30;99.90;;;;;;5055771;28;20204;-66
2023/09/07 12:30:20;;;;;;;5.65;2.78;;;25.50;99.90;;;;;;5055546;28;21520;-66
2023/09/07 12:32:47;;;;;;;4.25;2.90;;;25.50;99.90;;;;;;5046129;28;20214;-66
2023/09/07 12:35:14;;;;;;;4.25;3.40;;;26.00;99.90;;;;;;5041094;28;21384;-66
2023/09/07 12:37:41;;;;;;;3.83;2.92;;;25.90;99.90;;;;;;5019762;28;20211;-66
2023/09/07 12:40:12;;;;;;;3.22;2.92;;;25.50;99.90;;;;;;5041395;28;20252;-66
2023/09/07 12:42:40;;;;;;;4.85;2.90;;;25.70;99.90;;;;;;5043563;28;20229;-66
2023/09/07 12:45:09;;;;;;;3.70;3.40;;;25.70;99.90;;;;;;5049732;28;20220;-66
2023/09/07 12:47:37;;;;;;;4.45;3.10;;;25.70;99.90;;;;;;5039111;28;20236;-66
2023/09/07 12:50:05;;;;;;;4.68;2.83;;;25.70;99.90;;;;;;5054694;28;20752;-66